Time;durP1;ratioP1;P1;durP2;ratioP2;P2;SDS_P1;SDS_P2;PMS_P1;PMS_P2;Temp;Humidity;BMP_temperature;BMP_pressure;BME280_temperature;BME280_humidity;BME280_pressure;Samples;Min_cycle;Max_cycle;Signal;HPM_P1;HPM_P2
2022/08/07 00:00:39;;;;;;;;;;;;;;;23.82;67.14;99905.63;5065337;28;19951;-49
2022/08/07 00:03:05;;;;;;;;;;;;;;;23.77;67.64;99905.97;5056380;28;20016;-49
2022/08/07 00:05:30;;;;;;;;;;;;;;;23.66;67.23;99903.25;5064046;28;19967;-47
2022/08/07 00:07:55;;;;;;;;;;;;;;;23.64;67.99;99909.56;5066932;28;19960;-47
2022/08/07 00:10:22;;;;;;;;;;;;;;;23.04;69.20;99905.91;5063500;28;19920;-49
2022/08/07 00:12:47;;;;;;;;;;;;;;;23.16;69.64;99910.28;5069969;28;19951;-48
2022/08/07 00:15:12;;;;;;;;;;;;;;;23.25;69.40;99904.41;5063243;28;20029;-48
2022/08/07 00:17:37;;;;;;;;;;;;;;;23.49;69.56;99900.97;5066048;28;19931;-48
2022/08/07 00:20:03;;;;;;;;;;;;;;;23.15;68.75;99900.75;5065787;28;20367;-50
2022/08/07 00:22:29;;;;;;;;;;;;;;;22.67;72.93;99908.38;5065881;28;20940;-49
2022/08/07 00:24:54;;;;;;;;;;;;;;;22.55;72.54;99900.38;5062936;28;19986;-47
2022/08/07 00:27:19;;;;;;;;;;;;;;;22.93;72.04;99901.34;5062049;28;19974;-47
2022/08/07 00:29:44;;;;;;;;;;;;;;;22.73;72.01;99903.53;5062062;28;19923;-46
2022/08/07 00:32:11;;;;;;;;;;;;;;;22.69;72.04;99891.59;5057669;28;19924;-46
2022/08/07 00:34:36;;;;;;;;;;;;;;;22.78;72.57;99887.47;5066825;28;19916;-47
2022/08/07 00:37:02;;;;;;;;;;;;;;;22.44;73.12;99892.41;5060267;28;19916;-47
2022/08/07 00:39:27;;;;;;;;;;;;;;;22.68;72.71;99886.44;5059569;28;19924;-50
2022/08/07 00:41:54;;;;;;;;;;;;;;;22.41;73.56;99889.97;5060836;28;19921;-49
2022/08/07 00:44:19;;;;;;;;;;;;;;;21.58;76.35;99891.91;5061779;28;20023;-50
2022/08/07 00:46:45;;;;;;;;;;;;;;;22.37;74.76;99891.13;5062348;28;19973;-47
2022/08/07 00:49:10;;;;;;;;;;;;;;;22.68;73.80;99891.69;5056514;28;20011;-47
2022/08/07 00:51:35;;;;;;;;;;;;;;;22.68;72.87;99891.69;5063500;28;19948;-47
2022/08/07 00:54:00;;;;;;;;;;;;;;;22.55;73.53;99878.53;5059686;28;21364;-49
2022/08/07 00:56:27;;;;;;;;;;;;;;;22.69;73.54;99875.84;5064643;28;20316;-47
2022/08/07 00:58:53;;;;;;;;;;;;;;;22.75;72.79;99871.94;5059663;28;19920;-48
2022/08/07 01:01:19;;;;;;;;;;;;;;;22.58;72.88;99873.09;5055599;28;19916;-48
2022/08/07 01:03:44;;;;;;;;;;;;;;;22.64;72.73;99875.28;5059979;28;19999;-49
2022/08/07 01:06:09;;;;;;;;;;;;;;;22.54;73.07;99882.13;5061126;28;19932;-48
2022/08/07 01:08:34;;;;;;;;;;;;;;;22.32;74.41;99883.56;5064661;28;19920;-45
2022/08/07 01:11:00;;;;;;;;;;;;;;;21.97;76.61;99887.66;5060927;28;19932;-48
2022/08/07 01:13:25;;;;;;;;;;;;;;;22.11;75.46;99885.78;5058573;28;19920;-46
2022/08/07 01:15:50;;;;;;;;;;;;;;;21.67;79.09;99886.06;5056599;28;19968;-47
2022/08/07 01:18:16;;;;;;;;;;;;;;;21.24;80.20;99892.19;5059005;28;20011;-49
2022/08/07 01:20:42;;;;;;;;;;;;;;;21.76;78.01;99885.47;5059761;28;19926;-50
2022/08/07 01:23:07;;;;;;;;;;;;;;;22.02;76.62;99875.91;5062314;28;19920;-48
2022/08/07 01:25:33;;;;;;;;;;;;;;;22.18;75.32;99875.72;5064120;28;19931;-49
2022/08/07 01:27:58;;;;;;;;;;;;;;;22.04;75.76;99875.81;5066131;28;19963;-46
2022/08/07 01:30:23;;;;;;;;;;;;;;;21.94;74.61;99867.72;5064930;28;19923;-47
2022/08/07 01:32:48;;;;;;;;;;;;;;;21.67;76.45;99878.19;5066771;28;19972;-48
2022/08/07 01:35:14;;;;;;;;;;;;;;;21.35;77.85;99880.19;5069156;28;19917;-49
2022/08/07 01:37:39;;;;;;;;;;;;;;;20.91;81.03;99891.63;5053583;28;20058;-47
2022/08/07 01:40:05;;;;;;;;;;;;;;;21.80;78.16;99876.44;5060716;28;19977;-47
2022/08/07 01:42:30;;;;;;;;;;;;;;;21.45;76.77;99871.69;5062244;28;20450;-47
2022/08/07 01:44:55;;;;;;;;;;;;;;;20.58;80.52;99874.41;5057997;28;19928;-48
2022/08/07 01:47:20;;;;;;;;;;;;;;;20.08;83.94;99880.78;5059105;28;19927;-48
2022/08/07 01:49:46;;;;;;;;;;;;;;;19.59;87.99;99885.19;5060023;28;19924;-50
2022/08/07 01:52:11;;;;;;;;;;;;;;;19.38;90.00;99881.13;5060557;28;19947;-45
2022/08/07 01:54:38;;;;;;;;;;;;;;;19.33;90.77;99880.53;5057649;28;19967;-49
2022/08/07 01:57:04;;;;;;;;;;;;;;;19.50;90.93;99877.00;5059336;28;19973;-48
2022/08/07 01:59:31;;;;;;;;;;;;;;;19.51;90.76;99876.09;5057521;28;20444;-46
2022/08/07 02:01:59;;;;;;;;;;;;;;;20.14;88.24;99870.81;5062379;28;20385;-46
2022/08/07 02:04:26;;;;;;;;;;;;;;;20.91;85.61;99865.44;5063399;28;19920;-51
2022/08/07 02:06:51;;;;;;;;;;;;;;;20.33;83.74;99869.75;5063007;28;19921;-50
2022/08/07 02:09:17;;;;;;;;;;;;;;;19.32;89.27;99881.50;5060488;28;19993;-50
2022/08/07 02:11:43;;;;;;;;;;;;;;;19.42;90.94;99880.88;5059182;28;20400;-46
2022/08/07 02:14:08;;;;;;;;;;;;;;;20.33;87.74;99870.59;5053754;28;19920;-48
2022/08/07 02:16:34;;;;;;;;;;;;;;;20.14;86.25;99875.19;5059610;28;19912;-45
2022/08/07 02:19:03;;;;;;;;;;;;;;;20.91;84.41;99866.28;5057992;28;19927;-47
2022/08/07 02:21:29;;;;;;;;;;;;;;;20.44;84.47;99873.41;5062130;28;19920;-47
2022/08/07 02:23:54;;;;;;;;;;;;;;;19.08;89.71;99888.84;5058694;28;19920;-46
2022/08/07 02:26:19;;;;;;;;;;;;;;;19.59;89.95;99874.75;5059322;28;19930;-45
2022/08/07 02:28:44;;;;;;;;;;;;;;;19.41;88.80;99870.53;5059594;28;19982;-46
2022/08/07 02:31:10;;;;;;;;;;;;;;;19.08;91.52;99879.25;5056014;28;19916;-46
2022/08/07 02:33:35;;;;;;;;;;;;;;;19.47;90.81;99864.94;5060514;28;19920;-50
2022/08/07 02:36:00;;;;;;;;;;;;;;;19.67;88.33;99860.41;5059275;28;20486;-46
2022/08/07 02:38:27;;;;;;;;;;;;;;;18.66;92.50;99867.50;5058511;28;19916;-47
2022/08/07 02:40:52;;;;;;;;;;;;;;;18.81;93.43;99869.31;5054363;28;19969;-47
2022/08/07 02:43:17;;;;;;;;;;;;;;;18.39;95.29;99875.78;5057576;28;19928;-46
2022/08/07 02:45:43;;;;;;;;;;;;;;;18.22;96.80;99878.38;5060110;28;20014;-49
2022/08/07 02:48:08;;;;;;;;;;;;;;;18.76;97.60;99873.91;5052152;28;20010;-49
2022/08/07 02:50:34;;;;;;;;;;;;;;;18.44;97.70;99872.13;5058700;28;19943;-51
2022/08/07 02:53:06;;;;;;;;;;;;;;;17.83;99.82;99874.19;5057902;28;19963;-49
2022/08/07 02:55:34;;;;;;;;;;;;;;;17.73;100.00;99876.38;5059393;28;19920;-46
2022/08/07 02:58:02;;;;;;;;;;;;;;;18.12;99.82;99864.13;5057398;28;19997;-47
2022/08/07 03:00:27;;;;;;;;;;;;;;;17.90;100.00;99861.72;5055230;28;19931;-46
2022/08/07 03:02:53;;;;;;;;;;;;;;;18.33;97.50;99854.41;5056978;28;19921;-47
2022/08/07 03:05:18;;;;;;;;;;;;;;;18.67;95.43;99856.13;5062043;28;19931;-49
2022/08/07 03:07:43;;;;;;;;;;;;;;;18.65;94.64;99860.56;5058727;28;19916;-48
2022/08/07 03:10:09;;;;;;;;;;;;;;;18.69;94.29;99859.50;5059621;28;19920;-48
2022/08/07 03:12:34;;;;;;;;;;;;;;;19.79;91.13;99844.91;5061578;28;20015;-48
2022/08/07 03:14:59;;;;;;;;;;;;;;;20.29;87.33;99836.84;5058686;28;20177;-47
2022/08/07 03:17:25;;;;;;;;;;;;;;;20.20;87.11;99848.69;5058600;28;19920;-47
2022/08/07 03:19:50;;;;;;;;;;;;;;;19.83;88.14;99846.41;5060479;28;19942;-49
2022/08/07 03:22:15;;;;;;;;;;;;;;;19.19;88.75;99850.78;5063859;28;20019;-48
2022/08/07 03:24:41;;;;;;;;;;;;;;;18.76;91.42;99857.41;5066921;28;19931;-48
2022/08/07 03:27:06;;;;;;;;;;;;;;;18.33;95.05;99865.66;5066725;28;19920;-47
2022/08/07 03:29:32;;;;;;;;;;;;;;;18.51;95.05;99857.84;5063823;28;19926;-48
2022/08/07 03:31:58;;;;;;;;;;;;;;;18.68;93.46;99850.00;5056980;28;20008;-50
2022/08/07 03:34:23;;;;;;;;;;;;;;;18.74;94.62;99860.09;5066939;28;20011;-50
2022/08/07 03:36:49;;;;;;;;;;;;;;;18.62;93.62;99852.91;5058500;28;19938;-49
2022/08/07 03:39:15;;;;;;;;;;;;;;;18.39;95.76;99854.09;5059365;28;19924;-48
2022/08/07 03:41:40;;;;;;;;;;;;;;;18.75;94.09;99853.97;5063469;28;19963;-46
2022/08/07 03:44:05;;;;;;;;;;;;;;;18.28;95.01;99859.84;5064050;28;19968;-47
2022/08/07 03:46:30;;;;;;;;;;;;;;;18.65;96.24;99860.56;5059975;28;19967;-47
2022/08/07 03:48:55;;;;;;;;;;;;;;;18.29;94.95;99853.72;5063512;28;19963;-47
2022/08/07 03:51:21;;;;;;;;;;;;;;;18.13;98.06;99858.00;5062027;28;19950;-50
2022/08/07 03:53:46;;;;;;;;;;;;;;;18.09;98.76;99857.31;5059945;28;19916;-49
2022/08/07 03:56:13;;;;;;;;;;;;;;;18.24;96.19;99855.69;5065420;28;19946;-46
2022/08/07 03:58:38;;;;;;;;;;;;;;;17.50;100.00;99866.22;5062035;28;19926;-47
2022/08/07 04:01:04;;;;;;;;;;;;;;;17.91;100.00;99863.44;5054012;28;19985;-49
2022/08/07 04:03:29;;;;;;;;;;;;;;;18.08;100.00;99857.38;5064406;28;19929;-48
2022/08/07 04:05:54;;;;;;;;;;;;;;;18.58;98.70;99848.78;5060388;28;20816;-46
2022/08/07 04:08:20;;;;;;;;;;;;;;;18.16;100.00;99855.25;5065134;28;19923;-46
2022/08/07 04:10:47;;;;;;;;;;;;;;;18.34;100.00;99856.94;5058288;28;19920;-49
2022/08/07 04:13:12;;;;;;;;;;;;;;;17.74;100.00;99865.06;5046624;28;19921;-47
2022/08/07 04:15:38;;;;;;;;;;;;;;;18.67;100.00;99850.06;5056432;28;20278;-47
2022/08/07 04:18:03;;;;;;;;;;;;;;;18.66;100.00;99851.00;5070287;28;20032;-50
2022/08/07 04:20:28;;;;;;;;;;;;;;;19.06;100.00;99849.75;5067301;28;19924;-48
2022/08/07 04:22:53;;;;;;;;;;;;;;;19.09;99.27;99844.41;5064079;28;19917;-48
2022/08/07 04:25:20;;;;;;;;;;;;;;;19.01;100.00;99846.56;5063107;28;19924;-47
2022/08/07 04:27:45;;;;;;;;;;;;;;;18.74;100.00;99852.28;5060062;28;19920;-47
2022/08/07 04:30:11;;;;;;;;;;;;;;;19.58;100.00;99846.91;5060984;28;19922;-48
2022/08/07 04:32:36;;;;;;;;;;;;;;;19.74;96.82;99846.09;5062311;28;19920;-46
2022/08/07 04:35:02;;;;;;;;;;;;;;;20.11;96.65;99844.81;5063797;28;19920;-46
2022/08/07 04:37:28;;;;;;;;;;;;;;;20.22;95.67;99841.59;5056330;28;19925;-49
2022/08/07 04:39:53;;;;;;;;;;;;;;;20.33;95.84;99838.34;5057912;28;19943;-50
2022/08/07 04:42:18;;;;;;;;;;;;;;;20.22;94.88;99841.59;5063139;28;19948;-48
2022/08/07 04:44:43;;;;;;;;;;;;;;;20.47;95.39;99841.81;5056342;28;20010;-48
2022/08/07 04:47:10;;;;;;;;;;;;;;;20.50;94.82;99845.19;5064406;28;19920;-46
2022/08/07 04:49:35;;;;;;;;;;;;;;;20.58;94.94;99843.00;5057229;28;19919;-48
2022/08/07 04:52:03;;;;;;;;;;;;;;;20.66;94.85;99839.00;5065120;28;19920;-47
2022/08/07 04:54:44;;;;;;;;;;;;;;;20.57;95.11;99844.78;5060376;28;19955;-47
2022/08/07 04:57:12;;;;;;;;;;;;;;;20.62;95.23;99836.66;5062600;28;19970;-47
2022/08/07 04:59:56;;;;;;;;;;;;;;;20.63;95.70;99840.94;5063356;28;19978;-47
2022/08/07 05:02:23;;;;;;;;;;;;;;;20.45;96.61;99846.31;5053899;28;19920;-47
2022/08/07 05:04:57;;;;;;;;;;;;;;;19.98;98.77;99849.06;5062458;28;19924;-48
2022/08/07 05:07:43;;;;;;;;;;;;;;;19.92;100.00;99855.50;5058241;28;19955;-47
2022/08/07 05:10:13;;;;;;;;;;;;;;;20.08;100.00;99854.63;5059418;28;19993;-47
2022/08/07 05:12:50;;;;;;;;;;;;;;;20.05;100.00;99861.72;5058146;28;20946;-49
2022/08/07 05:15:16;;;;;;;;;;;;;;;20.01;100.00;99854.97;5060266;28;19974;-47
2022/08/07 05:17:48;;;;;;;;;;;;;;;20.01;100.00;99854.16;5063334;28;19928;-47
2022/08/07 05:20:14;;;;;;;;;;;;;;;20.55;98.67;99853.59;5059937;28;19924;-48
2022/08/07 05:22:39;;;;;;;;;;;;;;;20.66;98.70;99852.09;5063602;28;19916;-50
2022/08/07 05:25:05;;;;;;;;;;;;;;;20.92;94.86;99848.81;5059465;28;19935;-48
2022/08/07 05:27:31;;;;;;;;;;;;;;;21.38;92.59;99843.31;5053960;28;20571;-47
2022/08/07 05:29:56;;;;;;;;;;;;;;;21.63;91.82;99847.88;5058416;28;19924;-47
2022/08/07 05:32:23;;;;;;;;;;;;;;;21.81;91.39;99858.97;5061353;28;20652;-49
2022/08/07 05:34:49;;;;;;;;;;;;;;;21.85;90.09;99847.31;5059964;28;19974;-51
2022/08/07 05:37:14;;;;;;;;;;;;;;;22.01;90.15;99853.25;5063068;28;20018;-48
2022/08/07 05:39:39;;;;;;;;;;;;;;;21.72;89.40;99863.84;5053981;28;20535;-48
2022/08/07 05:42:04;;;;;;;;;;;;;;;21.39;87.50;99865.94;5045412;28;20010;-49
2022/08/07 05:44:32;;;;;;;;;;;;;;;21.77;86.84;99860.91;5065142;28;20455;-51
2022/08/07 05:46:57;;;;;;;;;;;;;;;21.09;86.00;99865.16;5062688;28;19916;-51
2022/08/07 05:49:23;;;;;;;;;;;;;;;21.69;88.37;99866.66;5062074;28;19931;-48
2022/08/07 05:51:48;;;;;;;;;;;;;;;21.90;82.74;99860.97;5056771;28;21107;-48
2022/08/07 05:54:15;;;;;;;;;;;;;;;22.25;82.67;99861.28;5059740;28;19920;-49
2022/08/07 05:56:40;;;;;;;;;;;;;;;22.21;84.71;99864.19;5059368;28;19920;-51
2022/08/07 05:59:08;;;;;;;;;;;;;;;22.96;82.29;99861.72;5059114;28;19964;-50
2022/08/07 06:01:34;;;;;;;;;;;;;;;22.83;79.02;99864.38;5058017;28;19970;-51
2022/08/07 06:03:59;;;;;;;;;;;;;;;23.31;81.86;99876.81;5061234;28;19923;-49
2022/08/07 06:06:25;;;;;;;;;;;;;;;23.48;82.07;99868.59;5064260;28;19924;-49
2022/08/07 06:08:50;;;;;;;;;;;;;;;23.15;80.61;99867.41;5063592;28;19973;-49
2022/08/07 06:11:15;;;;;;;;;;;;;;;23.81;80.59;99867.09;5057338;28;19924;-49
2022/08/07 06:13:40;;;;;;;;;;;;;;;24.03;80.91;99863.75;5064375;28;19926;-50
2022/08/07 06:16:06;;;;;;;;;;;;;;;23.84;78.33;99860.81;5063649;28;19927;-50
2022/08/07 06:18:32;;;;;;;;;;;;;;;24.28;79.85;99873.28;5060688;28;20350;-50
2022/08/07 06:20:58;;;;;;;;;;;;;;;24.47;79.72;99871.88;5060026;28;19916;-48
2022/08/07 06:23:23;;;;;;;;;;;;;;;24.53;77.83;99867.03;5061755;28;19920;-49
2022/08/07 06:25:49;;;;;;;;;;;;;;;24.73;76.80;99862.03;5061390;28;20536;-49
2022/08/07 06:28:15;;;;;;;;;;;;;;;24.96;75.73;99871.63;5069958;28;20272;-49
2022/08/07 06:30:41;;;;;;;;;;;;;;;24.91;76.69;99871.16;5066226;28;20015;-48
2022/08/07 06:33:06;;;;;;;;;;;;;;;25.07;75.15;99876.06;5059959;28;19920;-50
2022/08/07 06:35:31;;;;;;;;;;;;;;;25.44;75.94;99878.44;5057693;28;19920;-47
2022/08/07 06:37:57;;;;;;;;;;;;;;;25.32;73.36;99872.34;5053518;28;19920;-51
2022/08/07 06:40:22;;;;;;;;;;;;;;;25.43;70.45;99867.06;5062644;28;19920;-49
2022/08/07 06:42:48;;;;;;;;;;;;;;;25.16;70.04;99863.94;5053025;28;19978;-52
2022/08/07 06:45:14;;;;;;;;;;;;;;;24.94;71.46;99865.63;5061943;28;19960;-51
2022/08/07 06:47:39;;;;;;;;;;;;;;;25.24;69.96;99858.91;5054702;28;19921;-48
2022/08/07 06:50:05;;;;;;;;;;;;;;;25.37;71.76;99858.78;5052972;28;20015;-49
2022/08/07 06:52:32;;;;;;;;;;;;;;;25.56;71.07;99856.34;5044296;28;19955;-53
2022/08/07 06:54:57;;;;;;;;;;;;;;;24.67;72.28;99865.13;5060918;28;19932;-48
2022/08/07 06:57:23;;;;;;;;;;;;;;;25.31;69.97;99862.75;5063733;28;19920;-50
2022/08/07 06:59:48;;;;;;;;;;;;;;;25.75;72.18;99860.97;5058405;28;19931;-52
2022/08/07 07:02:17;;;;;;;;;;;;;;;25.83;69.78;99860.34;5055737;28;19916;-51
2022/08/07 07:04:43;;;;;;;;;;;;;;;24.99;73.39;99862.63;5054693;28;19919;-50
2022/08/07 07:07:08;;;;;;;;;;;;;;;25.58;72.33;99861.50;5060925;28;19924;-48
2022/08/07 07:09:33;;;;;;;;;;;;;;;24.95;70.49;99864.69;5060053;28;19917;-52
2022/08/07 07:12:05;;;;;;;;;;;;;;;25.67;69.70;99858.13;5058626;28;19927;-51
2022/08/07 07:14:49;;;;;;;;;;;;;;;26.05;69.83;99856.81;5059312;28;19920;-51
2022/08/07 07:17:17;;;;;;;;;;;;;;;25.26;69.82;99854.38;5065183;28;19927;-50
2022/08/07 07:19:46;;;;;;;;;;;;;;;26.28;71.83;99853.06;5056604;28;20677;-49
2022/08/07 07:22:12;;;;;;;;;;;;;;;26.70;63.87;99837.19;5060975;28;19924;-47
2022/08/07 07:24:37;;;;;;;;;;;;;;;26.62;65.24;99852.06;5052452;28;19920;-50
2022/08/07 07:27:03;;;;;;;;;;;;;;;26.87;62.84;99848.97;5059221;28;19924;-50
2022/08/07 07:29:30;;;;;;;;;;;;;;;26.89;65.42;99848.81;5060434;28;20757;-51
2022/08/07 07:31:55;;;;;;;;;;;;;;;26.48;65.95;99853.22;5054927;28;19924;-48
2022/08/07 07:34:22;;;;;;;;;;;;;;;26.32;65.29;99852.81;5061489;28;19916;-50
2022/08/07 07:36:47;;;;;;;;;;;;;;;26.41;69.82;99852.03;5053751;28;20319;-49
2022/08/07 07:39:12;;;;;;;;;;;;;;;27.32;67.10;99847.72;5057125;28;19920;-51
2022/08/07 07:41:38;;;;;;;;;;;;;;;27.42;62.69;99843.31;5056696;28;20377;-49
2022/08/07 07:44:03;;;;;;;;;;;;;;;26.79;63.54;99850.59;5057286;28;19975;-50
2022/08/07 07:46:29;;;;;;;;;;;;;;;26.55;65.62;99845.59;5061442;28;20018;-48
2022/08/07 07:48:54;;;;;;;;;;;;;;;26.90;65.49;99838.13;5059969;28;19921;-49
2022/08/07 07:51:19;;;;;;;;;;;;;;;26.16;67.43;99840.91;5058953;28;20013;-51
2022/08/07 07:53:45;;;;;;;;;;;;;;;26.51;71.90;99847.66;5061553;28;20019;-53
2022/08/07 07:56:11;;;;;;;;;;;;;;;27.15;66.20;99835.16;5056771;28;19959;-50
2022/08/07 07:58:37;;;;;;;;;;;;;;;27.57;64.40;99834.97;5059781;28;19920;-50
2022/08/07 08:01:02;;;;;;;;;;;;;;;28.28;61.21;99839.97;5060903;28;20297;-50
2022/08/07 08:03:27;;;;;;;;;;;;;;;28.06;60.57;99841.97;5059132;28;19920;-49
2022/08/07 08:05:53;;;;;;;;;;;;;;;27.37;64.02;99834.97;5062828;28;19929;-50
2022/08/07 08:08:18;;;;;;;;;;;;;;;27.43;63.80;99838.84;5068129;28;20542;-49
2022/08/07 08:10:43;;;;;;;;;;;;;;;27.62;62.58;99828.31;5060005;28;20764;-51
2022/08/07 08:13:08;;;;;;;;;;;;;;;26.65;62.62;99828.84;5063340;28;19920;-52
2022/08/07 08:15:38;;;;;;;;;;;;;;;27.67;58.54;99814.66;5058995;28;19927;-49
2022/08/07 08:18:03;;;;;;;;;;;;;;;26.64;64.15;99821.03;5058228;28;20370;-49
2022/08/07 08:20:30;;;;;;;;;;;;;;;26.28;69.09;99821.38;5058552;28;19927;-50
2022/08/07 08:28:27;;;;;;;;;;;;;;;27.69;58.21;99820.66;5062168;28;19930;-50
2022/08/07 08:30:54;;;;;;;;;;;;;;;28.52;52.94;99815.69;5059595;28;20926;-50
2022/08/07 08:33:19;;;;;;;;;;;;;;;27.98;55.19;99822.47;5063185;28;20371;-51
2022/08/07 08:35:48;;;;;;;;;;;;;;;28.14;52.81;99815.63;5062873;28;20030;-51
2022/08/07 08:38:14;;;;;;;;;;;;;;;27.98;51.31;99811.88;5067128;28;20695;-49
2022/08/07 08:40:39;;;;;;;;;;;;;;;27.71;52.79;99810.72;5055112;28;19920;-52
2022/08/07 08:43:10;;;;;;;;;;;;;;;28.34;52.56;99816.41;5059938;28;19927;-48
2022/08/07 08:45:54;;;;;;;;;;;;;;;28.05;54.96;99812.97;5059231;28;19924;-49
2022/08/07 08:48:35;;;;;;;;;;;;;;;27.82;57.53;99805.31;5062120;28;19920;-52
2022/08/07 08:51:01;;;;;;;;;;;;;;;28.95;52.51;99803.66;5060519;28;19924;-50
2022/08/07 08:53:45;;;;;;;;;;;;;;;28.39;53.50;99809.84;5061067;28;19927;-50
2022/08/07 08:56:13;;;;;;;;;;;;;;;27.58;52.83;99804.91;5067983;28;20494;-50
2022/08/07 08:58:44;;;;;;;;;;;;;;;28.18;49.88;99797.63;5061110;28;19920;-49
2022/08/07 09:01:14;;;;;;;;;;;;;;;27.28;49.90;99794.28;5059333;28;20347;-51
2022/08/07 09:03:58;;;;;;;;;;;;;;;28.97;50.80;99796.41;5061398;28;20506;-50
2022/08/07 09:06:49;;;;;;;;;;;;;;;28.94;51.67;99794.00;5058200;28;20962;-51
2022/08/07 09:09:27;;;;;;;;;;;;;;;27.88;49.86;99793.38;5040249;28;19986;-48
2022/08/07 09:12:11;;;;;;;;;;;;;;;28.97;49.02;99788.44;5054957;28;19989;-51
2022/08/07 09:14:43;;;;;;;;;;;;;;;28.29;46.84;99794.00;5054726;28;19924;-49
2022/08/07 09:17:27;;;;;;;;;;;;;;;28.43;45.29;99785.56;5055318;28;20023;-50
2022/08/07 09:19:56;;;;;;;;;;;;;;;26.97;47.83;99792.66;5062384;28;19920;-49
2022/08/07 09:22:33;;;;;;;;;;;;;;;28.66;50.50;99791.38;5059313;28;20273;-50
2022/08/07 09:25:28;;;;;;;;;;;;;;;26.74;48.71;99778.81;5068606;28;19928;-48
2022/08/07 09:27:59;;;;;;;;;;;;;;;29.47;43.35;99774.72;5014565;28;20030;-52
2022/08/07 09:30:25;;;;;;;;;;;;;;;28.04;43.17;99779.53;5061290;28;19916;-48
2022/08/07 09:33:01;;;;;;;;;;;;;;;29.22;45.35;99770.16;5057840;28;20528;-52
2022/08/07 09:35:41;;;;;;;;;;;;;;;29.74;41.01;99763.22;5050418;28;19946;-50
2022/08/07 09:38:07;;;;;;;;;;;;;;;29.65;42.10;99763.25;5058393;28;19916;-50
2022/08/07 09:41:01;;;;;;;;;;;;;;;29.50;39.43;99763.78;5063908;28;19920;-51
2022/08/07 09:43:42;;;;;;;;;;;;;;;27.89;41.15;99777.31;5064251;28;19921;-50
2022/08/07 09:46:13;;;;;;;;;;;;;;;29.58;41.92;99763.03;5064155;28;19927;-52
2022/08/07 09:48:45;;;;;;;;;;;;;;;28.07;40.17;99772.13;5059932;28;19934;-49
2022/08/07 09:51:29;;;;;;;;;;;;;;;28.93;44.47;99771.16;5060015;28;19997;-48
2022/08/07 09:53:56;;;;;;;;;;;;;;;30.21;39.81;99762.03;5058834;28;20615;-53
2022/08/07 09:56:40;;;;;;;;;;;;;;;30.84;40.27;99763.50;5061458;28;19973;-48
2022/08/07 09:59:13;;;;;;;;;;;;;;;29.35;38.25;99749.38;5056964;28;19920;-51
2022/08/07 10:01:44;;;;;;;;;;;;;;;30.42;37.07;99751.84;5056416;28;19931;-53
2022/08/07 10:04:24;;;;;;;;;;;;;;;31.11;37.62;99749.16;5058118;28;19942;-51
2022/08/07 10:07:08;;;;;;;;;;;;;;;29.79;35.26;99738.84;5061412;28;19924;-51
2022/08/07 10:09:35;;;;;;;;;;;;;;;29.13;39.47;99746.19;5062680;28;21416;-52
2022/08/07 10:12:06;;;;;;;;;;;;;;;30.41;37.93;99741.41;5057948;28;19928;-52
2022/08/07 10:14:32;;;;;;;;;;;;;;;29.45;38.79;99736.88;5058697;28;20422;-50
2022/08/07 10:17:00;;;;;;;;;;;;;;;29.96;36.24;99737.97;5065056;28;19916;-52
2022/08/07 10:19:33;;;;;;;;;;;;;;;28.63;37.39;99738.66;5061281;28;19920;-53
2022/08/07 10:22:17;;;;;;;;;;;;;;;29.68;38.58;99739.09;5058929;28;20734;-51
2022/08/07 10:24:48;;;;;;;;;;;;;;;30.74;37.12;99739.69;5061107;28;19977;-52
2022/08/07 10:27:17;;;;;;;;;;;;;;;30.70;36.24;99738.38;5055902;28;20026;-50
2022/08/07 10:29:45;;;;;;;;;;;;;;;31.91;33.90;99729.03;5061715;28;19920;-53
2022/08/07 10:32:11;;;;;;;;;;;;;;;31.20;34.67;99724.22;5060620;28;20301;-52
2022/08/07 10:34:48;;;;;;;;;;;;;;;30.62;33.92;99728.53;5065753;28;19916;-53
2022/08/07 10:37:26;;;;;;;;;;;;;;;30.48;35.20;99726.47;5064647;28;19951;-53
2022/08/07 10:40:01;;;;;;;;;;;;;;;30.99;35.39;99729.16;5054427;28;20043;-52
2022/08/07 10:43:02;;;;;;;;;;;;;;;30.63;33.25;99726.69;5061613;28;20358;-53
2022/08/07 10:45:36;;;;;;;;;;;;;;;30.02;35.72;99723.22;5030320;28;19924;-52
2022/08/07 10:48:14;;;;;;;;;;;;;;;30.00;36.28;99728.69;5057590;28;19946;-50
2022/08/07 10:50:46;;;;;;;;;;;;;;;31.95;35.16;99719.72;5057754;28;19931;-53
2022/08/07 10:53:11;;;;;;;;;;;;;;;31.37;34.57;99721.56;5053265;28;20404;-52
2022/08/07 10:55:50;;;;;;;;;;;;;;;31.70;33.48;99718.91;5065011;28;19916;-54
2022/08/07 10:58:24;;;;;;;;;;;;;;;30.95;33.64;99715.38;5059658;28;19920;-52
2022/08/07 11:01:13;;;;;;;;;;;;;;;32.02;31.93;99710.91;5054111;28;19916;-52
2022/08/07 11:03:40;;;;;;;;;;;;;;;30.60;31.28;99703.09;5054810;28;19920;-52
2022/08/07 11:06:19;;;;;;;;;;;;;;;30.29;32.75;99706.31;5060177;28;19925;-53
2022/08/07 11:08:45;;;;;;;;;;;;;;;31.55;33.66;99700.97;5062592;28;19989;-52
2022/08/07 11:11:15;;;;;;;;;;;;;;;32.02;32.10;99694.06;5060864;28;20335;-52
2022/08/07 11:13:42;;;;;;;;;;;;;;;31.22;33.94;99700.91;5058850;28;20834;-51
2022/08/07 11:16:08;;;;;;;;;;;;;;;32.05;32.03;99691.09;5059138;28;20024;-54
2022/08/07 11:18:47;;;;;;;;;;;;;;;32.60;31.48;99673.41;5066747;28;19927;-54
2022/08/07 11:21:31;;;;;;;;;;;;;;;32.97;33.16;99683.31;5061766;28;20030;-53
2022/08/07 11:24:03;;;;;;;;;;;;;;;32.52;33.03;99684.91;5054156;28;19927;-53
2022/08/07 11:26:32;;;;;;;;;;;;;;;32.53;31.09;99675.09;5055594;28;20597;-53
2022/08/07 11:29:08;;;;;;;;;;;;;;;32.83;33.48;99687.59;5057743;28;19916;-50
2022/08/07 11:31:54;;;;;;;;;;;;;;;33.63;32.81;99669.50;5063529;28;19920;-52
2022/08/07 11:34:21;;;;;;;;;;;;;;;32.49;31.40;99677.25;5066504;28;19923;-52
2022/08/07 11:36:55;;;;;;;;;;;;;;;33.11;33.33;99671.91;5059072;28;19936;-52
2022/08/07 11:39:23;;;;;;;;;;;;;;;33.65;29.84;99660.28;5057515;28;19924;-53
2022/08/07 11:42:07;;;;;;;;;;;;;;;31.67;32.60;99664.16;5061640;28;19931;-52
2022/08/07 11:44:42;;;;;;;;;;;;;;;32.25;33.56;99675.50;5060579;28;19920;-52
2022/08/07 11:47:20;;;;;;;;;;;;;;;33.43;30.35;99655.78;5064821;28;19920;-53
2022/08/07 11:49:48;;;;;;;;;;;;;;;34.13;32.13;99663.44;5056632;28;19928;-54
2022/08/07 11:52:25;;;;;;;;;;;;;;;33.50;29.58;99656.72;5060245;28;19925;-54
2022/08/07 11:55:00;;;;;;;;;;;;;;;32.76;33.99;99662.63;5063348;28;19920;-53
2022/08/07 11:57:28;;;;;;;;;;;;;;;32.56;30.17;99658.75;5064089;28;19954;-52
2022/08/07 12:00:08;;;;;;;;;;;;;;;32.70;32.60;99672.16;5055497;28;20042;-54
2022/08/07 12:02:39;;;;;;;;;;;;;;;32.54;31.52;99661.56;5061199;28;19920;-54
2022/08/07 12:05:07;;;;;;;;;;;;;;;31.68;32.47;99660.47;5063701;28;20555;-55
2022/08/07 12:07:52;;;;;;;;;;;;;;;33.04;31.92;99667.44;5064191;28;19939;-55
2022/08/07 12:10:25;;;;;;;;;;;;;;;33.73;29.76;99657.53;5044718;28;19920;-53
2022/08/07 12:12:52;;;;;;;;;;;;;;;35.46;31.95;99664.03;5065128;28;19927;-54
2022/08/07 12:15:20;;;;;;;;;;;;;;;35.29;29.24;99658.16;5062254;28;19955;-55
2022/08/07 12:17:51;;;;;;;;;;;;;;;35.32;29.07;99657.75;5057138;28;19991;-55
2022/08/07 12:20:43;;;;;;;;;;;;;;;34.09;29.22;99656.78;5057292;28;19928;-55
2022/08/07 12:23:08;;;;;;;;;;;;;;;33.47;30.98;99667.78;5041263;28;19975;-54
2022/08/07 12:26:09;;;;;;;;;;;;;;;32.72;29.89;99658.66;5059613;28;20619;-53
2022/08/07 12:28:42;;;;;;;;;;;;;;;32.30;30.66;99663.34;5013136;28;19928;-54
2022/08/07 12:31:10;;;;;;;;;;;;;;;34.67;31.52;99664.09;5050934;28;19923;-55
2022/08/07 12:33:35;;;;;;;;;;;;;;;35.36;29.41;99648.31;5065218;28;20725;-53
2022/08/07 12:36:01;;;;;;;;;;;;;;;33.83;29.25;99646.56;5062958;28;19920;-55
2022/08/07 12:38:26;;;;;;;;;;;;;;;34.59;30.37;99651.66;5064694;28;20420;-55
2022/08/07 12:40:54;;;;;;;;;;;;;;;36.08;29.79;99651.66;5059291;28;20008;-56
2022/08/07 12:43:20;;;;;;;;;;;;;;;34.52;29.77;99654.25;5065001;28;19931;-56
2022/08/07 12:45:54;;;;;;;;;;;;;;;35.42;31.54;99648.56;5061693;28;20023;-56
2022/08/07 12:48:26;;;;;;;;;;;;;;;33.38;31.00;99632.31;5060325;28;19964;-55
2022/08/07 12:51:01;;;;;;;;;;;;;;;34.49;28.13;99622.53;5067553;28;19921;-55
2022/08/07 12:53:29;;;;;;;;;;;;;;;34.38;30.23;99639.06;5059435;28;20421;-56
2022/08/07 12:56:01;;;;;;;;;;;;;;;34.03;30.18;99625.47;5063613;28;19973;-55
2022/08/07 12:58:27;;;;;;;;;;;;;;;34.58;29.08;99623.25;5062202;28;19920;-57